sensor_id;sensor_type;location;lat;lon;timestamp;temperature;humidity
65378;SHT31;51982;51.042;13.806;2023-05-10T00:00:38;15.55;62.18
65378;SHT31;51982;51.042;13.806;2023-05-10T00:03:04;15.52;62.25
65378;SHT31;51982;51.042;13.806;2023-05-10T00:05:30;15.52;62.29
65378;SHT31;51982;51.042;13.806;2023-05-10T00:07:55;15.52;62.46
65378;SHT31;51982;51.042;13.806;2023-05-10T00:10:20;15.51;62.31
65378;SHT31;51982;51.042;13.806;2023-05-10T00:12:45;15.49;62.31
65378;SHT31;51982;51.042;13.806;2023-05-10T00:15:11;15.51;62.25
65378;SHT31;51982;51.042;13.806;2023-05-10T00:17:36;15.46;62.37
65378;SHT31;51982;51.042;13.806;2023-05-10T00:20:01;15.48;62.34
65378;SHT31;51982;51.042;13.806;2023-05-10T00:22:26;15.45;62.36
65378;SHT31;51982;51.042;13.806;2023-05-10T00:24:52;15.44;62.40
65378;SHT31;51982;51.042;13.806;2023-05-10T00:27:17;15.46;62.36
65378;SHT31;51982;51.042;13.806;2023-05-10T00:29:42;15.42;62.22
65378;SHT31;51982;51.042;13.806;2023-05-10T00:32:07;15.39;62.23
65378;SHT31;51982;51.042;13.806;2023-05-10T00:34:32;15.39;62.27
65378;SHT31;51982;51.042;13.806;2023-05-10T00:36:58;15.32;62.22
65378;SHT31;51982;51.042;13.806;2023-05-10T00:39:23;15.31;62.28
65378;SHT31;51982;51.042;13.806;2023-05-10T00:41:48;15.32;62.26
65378;SHT31;51982;51.042;13.806;2023-05-10T00:44:14;15.31;62.14
65378;SHT31;51982;51.042;13.806;2023-05-10T00:46:39;15.30;62.18
65378;SHT31;51982;51.042;13.806;2023-05-10T00:49:05;15.25;62.25
65378;SHT31;51982;51.042;13.806;2023-05-10T00:51:31;15.25;62.37
65378;SHT31;51982;51.042;13.806;2023-05-10T00:53:56;15.22;62.36
65378;SHT31;51982;51.042;13.806;2023-05-10T00:56:22;15.21;62.40
65378;SHT31;51982;51.042;13.806;2023-05-10T00:58:48;15.21;62.39
65378;SHT31;51982;51.042;13.806;2023-05-10T01:01:14;15.18;62.44
65378;SHT31;51982;51.042;13.806;2023-05-10T01:03:39;15.14;62.48
65378;SHT31;51982;51.042;13.806;2023-05-10T01:06:05;15.11;62.55
65378;SHT31;51982;51.042;13.806;2023-05-10T01:08:30;15.14;62.45
65378;SHT31;51982;51.042;13.806;2023-05-10T01:10:55;15.11;62.43
65378;SHT31;51982;51.042;13.806;2023-05-10T01:13:38;15.04;62.68
65378;SHT31;51982;51.042;13.806;2023-05-10T01:16:05;15.05;62.62
65378;SHT31;51982;51.042;13.806;2023-05-10T01:18:33;15.03;62.61
65378;SHT31;51982;51.042;13.806;2023-05-10T01:21:19;14.97;62.77
65378;SHT31;51982;51.042;13.806;2023-05-10T01:24:09;14.94;62.88
65378;SHT31;51982;51.042;13.806;2023-05-10T01:29:19;14.91;62.88
65378;SHT31;51982;51.042;13.806;2023-05-10T01:32:05;14.88;63.06
65378;SHT31;51982;51.042;13.806;2023-05-10T01:34:35;14.90;62.93
65378;SHT31;51982;51.042;13.806;2023-05-10T01:37:16;14.87;63.28
65378;SHT31;51982;51.042;13.806;2023-05-10T01:40:00;14.83;63.21
65378;SHT31;51982;51.042;13.806;2023-05-10T01:42:43;14.83;63.09
65378;SHT31;51982;51.042;13.806;2023-05-10T01:45:22;14.85;63.11
65378;SHT31;51982;51.042;13.806;2023-05-10T01:47:56;14.79;63.22
65378;SHT31;51982;51.042;13.806;2023-05-10T01:50:27;14.77;63.33
65378;SHT31;51982;51.042;13.806;2023-05-10T01:52:55;14.76;63.34
65378;SHT31;51982;51.042;13.806;2023-05-10T01:55:25;14.69;63.53
65378;SHT31;51982;51.042;13.806;2023-05-10T01:57:54;14.67;63.56
65378;SHT31;51982;51.042;13.806;2023-05-10T02:00:21;14.64;63.69
65378;SHT31;51982;51.042;13.806;2023-05-10T02:02:48;14.66;63.70
65378;SHT31;51982;51.042;13.806;2023-05-10T02:05:15;14.66;63.75
65378;SHT31;51982;51.042;13.806;2023-05-10T02:07:41;14.63;63.91
65378;SHT31;51982;51.042;13.806;2023-05-10T02:10:09;14.61;63.87
65378;SHT31;51982;51.042;13.806;2023-05-10T02:12:36;14.59;64.01
65378;SHT31;51982;51.042;13.806;2023-05-10T02:15:03;14.53;63.99
65378;SHT31;51982;51.042;13.806;2023-05-10T02:17:30;14.53;64.15
65378;SHT31;51982;51.042;13.806;2023-05-10T02:19:57;14.53;64.12
65378;SHT31;51982;51.042;13.806;2023-05-10T02:22:24;14.52;64.23
65378;SHT31;51982;51.042;13.806;2023-05-10T02:24:50;14.46;64.27
65378;SHT31;51982;51.042;13.806;2023-05-10T02:27:17;14.47;64.19
65378;SHT31;51982;51.042;13.806;2023-05-10T02:29:42;14.47;64.30
65378;SHT31;51982;51.042;13.806;2023-05-10T02:32:09;14.46;64.30
65378;SHT31;51982;51.042;13.806;2023-05-10T02:34:35;14.44;64.39
65378;SHT31;51982;51.042;13.806;2023-05-10T02:37:02;14.43;64.41
65378;SHT31;51982;51.042;13.806;2023-05-10T02:39:28;14.39;64.46
65378;SHT31;51982;51.042;13.806;2023-05-10T02:41:54;14.37;64.57
65378;SHT31;51982;51.042;13.806;2023-05-10T02:44:22;14.36;64.63
65378;SHT31;51982;51.042;13.806;2023-05-10T02:46:47;14.34;64.64
65378;SHT31;51982;51.042;13.806;2023-05-10T02:49:13;14.36;64.75
65378;SHT31;51982;51.042;13.806;2023-05-10T02:51:43;14.30;64.73
65378;SHT31;51982;51.042;13.806;2023-05-10T02:54:19;14.26;65.02
65378;SHT31;51982;51.042;13.806;2023-05-10T02:56:50;14.25;64.98
65378;SHT31;51982;51.042;13.806;2023-05-10T02:59:16;14.22;65.10
65378;SHT31;51982;51.042;13.806;2023-05-10T03:01:41;14.22;65.08
65378;SHT31;51982;51.042;13.806;2023-05-10T03:04:07;14.22;65.17
65378;SHT31;51982;51.042;13.806;2023-05-10T03:06:32;14.18;65.28
65378;SHT31;51982;51.042;13.806;2023-05-10T03:08:57;14.20;65.24
65378;SHT31;51982;51.042;13.806;2023-05-10T03:14:21;14.13;65.49
65378;SHT31;51982;51.042;13.806;2023-05-10T03:16:54;14.08;65.49
65378;SHT31;51982;51.042;13.806;2023-05-10T03:19:27;14.15;65.56
65378;SHT31;51982;51.042;13.806;2023-05-10T03:21:58;14.08;65.66
65378;SHT31;51982;51.042;13.806;2023-05-10T03:24:27;14.10;65.63
65378;SHT31;51982;51.042;13.806;2023-05-10T03:26:55;14.08;65.65
65378;SHT31;51982;51.042;13.806;2023-05-10T03:29:26;14.10;65.67
65378;SHT31;51982;51.042;13.806;2023-05-10T03:31:51;14.10;65.70
65378;SHT31;51982;51.042;13.806;2023-05-10T03:34:16;14.09;65.85
65378;SHT31;51982;51.042;13.806;2023-05-10T03:36:42;14.06;65.90
65378;SHT31;51982;51.042;13.806;2023-05-10T03:39:07;14.02;66.02
65378;SHT31;51982;51.042;13.806;2023-05-10T03:41:32;14.06;65.97
65378;SHT31;51982;51.042;13.806;2023-05-10T03:43:58;14.06;66.00
65378;SHT31;51982;51.042;13.806;2023-05-10T03:46:23;14.05;66.01
65378;SHT31;51982;51.042;13.806;2023-05-10T03:48:48;13.99;66.20
65378;SHT31;51982;51.042;13.806;2023-05-10T03:51:13;13.98;66.29
65378;SHT31;51982;51.042;13.806;2023-05-10T03:53:38;13.97;66.29
65378;SHT31;51982;51.042;13.806;2023-05-10T03:56:04;13.97;66.25
65378;SHT31;51982;51.042;13.806;2023-05-10T03:58:29;14.04;66.15
65378;SHT31;51982;51.042;13.806;2023-05-10T04:00:54;14.01;66.25
65378;SHT31;51982;51.042;13.806;2023-05-10T04:03:20;14.02;66.34
65378;SHT31;51982;51.042;13.806;2023-05-10T04:05:45;13.99;66.41
65378;SHT31;51982;51.042;13.806;2023-05-10T04:08:10;13.98;66.47
65378;SHT31;51982;51.042;13.806;2023-05-10T04:10:35;13.95;66.54
65378;SHT31;51982;51.042;13.806;2023-05-10T04:13:01;13.98;66.52
65378;SHT31;51982;51.042;13.806;2023-05-10T04:15:26;13.95;66.76
65378;SHT31;51982;51.042;13.806;2023-05-10T04:17:51;13.97;66.71
65378;SHT31;51982;51.042;13.806;2023-05-10T04:20:17;13.99;66.78
65378;SHT31;51982;51.042;13.806;2023-05-10T04:22:42;13.97;66.77
65378;SHT31;51982;51.042;13.806;2023-05-10T04:25:08;13.95;66.77
65378;SHT31;51982;51.042;13.806;2023-05-10T04:27:33;13.95;66.85
65378;SHT31;51982;51.042;13.806;2023-05-10T04:29:58;13.98;66.87
65378;SHT31;51982;51.042;13.806;2023-05-10T04:32:24;14.04;66.85
65378;SHT31;51982;51.042;13.806;2023-05-10T04:34:49;14.01;66.97
65378;SHT31;51982;51.042;13.806;2023-05-10T04:37:15;14.02;66.91
65378;SHT31;51982;51.042;13.806;2023-05-10T04:39:41;14.04;67.01
65378;SHT31;51982;51.042;13.806;2023-05-10T04:42:06;14.09;66.98
65378;SHT31;51982;51.042;13.806;2023-05-10T04:44:32;14.10;66.92
65378;SHT31;51982;51.042;13.806;2023-05-10T04:46:58;14.12;67.00
65378;SHT31;51982;51.042;13.806;2023-05-10T04:49:23;14.09;67.03
65378;SHT31;51982;51.042;13.806;2023-05-10T04:51:49;14.12;67.04
65378;SHT31;51982;51.042;13.806;2023-05-10T04:54:14;14.15;67.09
65378;SHT31;51982;51.042;13.806;2023-05-10T04:56:39;14.19;66.98
65378;SHT31;51982;51.042;13.806;2023-05-10T04:59:05;14.22;67.05
65378;SHT31;51982;51.042;13.806;2023-05-10T05:01:31;14.26;67.12
65378;SHT31;51982;51.042;13.806;2023-05-10T05:03:56;14.32;67.03
65378;SHT31;51982;51.042;13.806;2023-05-10T05:06:21;14.39;67.09
65378;SHT31;51982;51.042;13.806;2023-05-10T05:08:46;14.43;67.18
65378;SHT31;51982;51.042;13.806;2023-05-10T05:11:14;14.55;66.96
65378;SHT31;51982;51.042;13.806;2023-05-10T05:13:39;14.59;66.93
65378;SHT31;51982;51.042;13.806;2023-05-10T05:16:04;14.69;67.01
65378;SHT31;51982;51.042;13.806;2023-05-10T05:18:30;14.81;67.08
65378;SHT31;51982;51.042;13.806;2023-05-10T05:20:55;14.95;66.89
65378;SHT31;51982;51.042;13.806;2023-05-10T05:23:20;15.01;66.51
65378;SHT31;51982;51.042;13.806;2023-05-10T05:25:49;15.11;66.64
65378;SHT31;51982;51.042;13.806;2023-05-10T05:28:14;15.14;67.26
65378;SHT31;51982;51.042;13.806;2023-05-10T05:30:40;15.15;66.81
65378;SHT31;51982;51.042;13.806;2023-05-10T05:33:05;15.14;66.49
65378;SHT31;51982;51.042;13.806;2023-05-10T05:35:30;15.11;66.51
65378;SHT31;51982;51.042;13.806;2023-05-10T05:37:55;15.14;66.53
65378;SHT31;51982;51.042;13.806;2023-05-10T05:40:21;15.12;66.56
65378;SHT31;51982;51.042;13.806;2023-05-10T05:42:46;15.12;66.72
65378;SHT31;51982;51.042;13.806;2023-05-10T05:45:11;15.12;66.61
65378;SHT31;51982;51.042;13.806;2023-05-10T05:47:38;15.14;66.61
65378;SHT31;51982;51.042;13.806;2023-05-10T05:50:04;15.08;66.56
65378;SHT31;51982;51.042;13.806;2023-05-10T05:52:30;15.12;68.41
65378;SHT31;51982;51.042;13.806;2023-05-10T05:54:55;15.24;67.96
65378;SHT31;51982;51.042;13.806;2023-05-10T05:57:21;15.24;67.27
65378;SHT31;51982;51.042;13.806;2023-05-10T05:59:46;15.25;66.91
65378;SHT31;51982;51.042;13.806;2023-05-10T06:02:12;15.30;67.03
65378;SHT31;51982;51.042;13.806;2023-05-10T06:04:37;15.34;67.82
65378;SHT31;51982;51.042;13.806;2023-05-10T06:07:02;15.38;66.94
65378;SHT31;51982;51.042;13.806;2023-05-10T06:09:28;15.41;66.86
65378;SHT31;51982;51.042;13.806;2023-05-10T06:11:53;15.48;67.88
65378;SHT31;51982;51.042;13.806;2023-05-10T06:14:20;15.52;67.72
65378;SHT31;51982;51.042;13.806;2023-05-10T06:16:45;15.65;67.98
65378;SHT31;51982;51.042;13.806;2023-05-10T06:19:10;15.67;67.76
65378;SHT31;51982;51.042;13.806;2023-05-10T06:21:36;15.73;67.14
65378;SHT31;51982;51.042;13.806;2023-05-10T06:24:01;15.76;67.62
65378;SHT31;51982;51.042;13.806;2023-05-10T06:26:27;15.81;66.72
65378;SHT31;51982;51.042;13.806;2023-05-10T06:28:52;15.82;67.33
65378;SHT31;51982;51.042;13.806;2023-05-10T06:31:18;15.82;66.50
65378;SHT31;51982;51.042;13.806;2023-05-10T06:33:43;15.89;67.47
65378;SHT31;51982;51.042;13.806;2023-05-10T06:36:08;15.92;66.39
65378;SHT31;51982;51.042;13.806;2023-05-10T06:38:34;15.93;66.21
65378;SHT31;51982;51.042;13.806;2023-05-10T06:40:59;15.97;66.06
65378;SHT31;51982;51.042;13.806;2023-05-10T06:43:24;16.06;65.67
65378;SHT31;51982;51.042;13.806;2023-05-10T06:45:51;16.20;65.54
65378;SHT31;51982;51.042;13.806;2023-05-10T06:48:16;16.38;65.51
65378;SHT31;51982;51.042;13.806;2023-05-10T06:50:42;16.50;65.39
65378;SHT31;51982;51.042;13.806;2023-05-10T06:53:07;16.60;64.97
65378;SHT31;51982;51.042;13.806;2023-05-10T06:55:32;16.69;64.93
65378;SHT31;51982;51.042;13.806;2023-05-10T06:57:57;16.74;64.80
65378;SHT31;51982;51.042;13.806;2023-05-10T07:00:23;16.82;64.73
65378;SHT31;51982;51.042;13.806;2023-05-10T07:02:48;16.89;64.40
65378;SHT31;51982;51.042;13.806;2023-05-10T07:05:13;16.96;64.29
65378;SHT31;51982;51.042;13.806;2023-05-10T07:07:39;16.98;64.43
65378;SHT31;51982;51.042;13.806;2023-05-10T07:10:05;16.99;64.20
65378;SHT31;51982;51.042;13.806;2023-05-10T07:12:30;17.02;64.28
65378;SHT31;51982;51.042;13.806;2023-05-10T07:14:55;17.02;64.12
65378;SHT31;51982;51.042;13.806;2023-05-10T07:17:20;17.01;64.00
65378;SHT31;51982;51.042;13.806;2023-05-10T07:19:46;16.95;64.44
65378;SHT31;51982;51.042;13.806;2023-05-10T07:22:11;16.99;64.38
65378;SHT31;51982;51.042;13.806;2023-05-10T07:24:36;17.01;64.52
65378;SHT31;51982;51.042;13.806;2023-05-10T07:27:02;17.04;64.70
65378;SHT31;51982;51.042;13.806;2023-05-10T07:29:27;17.07;64.72
65378;SHT31;51982;51.042;13.806;2023-05-10T07:31:53;17.11;64.59
65378;SHT31;51982;51.042;13.806;2023-05-10T07:34:18;17.07;64.56
65378;SHT31;51982;51.042;13.806;2023-05-10T07:36:44;17.09;64.58
65378;SHT31;51982;51.042;13.806;2023-05-10T07:39:09;17.14;65.02
65378;SHT31;51982;51.042;13.806;2023-05-10T07:41:34;17.21;65.08
65378;SHT31;51982;51.042;13.806;2023-05-10T07:43:59;17.23;64.93
65378;SHT31;51982;51.042;13.806;2023-05-10T07:46:25;17.26;65.17
65378;SHT31;51982;51.042;13.806;2023-05-10T07:48:50;17.28;64.85
65378;SHT31;51982;51.042;13.806;2023-05-10T07:51:15;17.30;64.80
65378;SHT31;51982;51.042;13.806;2023-05-10T07:53:40;17.38;64.75
65378;SHT31;51982;51.042;13.806;2023-05-10T07:56:26;17.35;64.62
65378;SHT31;51982;51.042;13.806;2023-05-10T07:58:55;17.38;64.37
65378;SHT31;51982;51.042;13.806;2023-05-10T08:01:20;17.39;64.47
65378;SHT31;51982;51.042;13.806;2023-05-10T08:03:45;17.42;64.56
65378;SHT31;51982;51.042;13.806;2023-05-10T08:06:11;17.46;64.64
65378;SHT31;51982;51.042;13.806;2023-05-10T08:08:36;17.50;64.99
65378;SHT31;51982;51.042;13.806;2023-05-10T08:11:01;17.53;64.86
65378;SHT31;51982;51.042;13.806;2023-05-10T08:13:27;17.57;64.35
65378;SHT31;51982;51.042;13.806;2023-05-10T08:15:52;17.60;64.35
65378;SHT31;51982;51.042;13.806;2023-05-10T08:18:18;17.65;64.26
65378;SHT31;51982;51.042;13.806;2023-05-10T08:20:43;17.65;63.76
65378;SHT31;51982;51.042;13.806;2023-05-10T08:23:09;17.69;63.98
65378;SHT31;51982;51.042;13.806;2023-05-10T08:25:34;17.72;63.96
65378;SHT31;51982;51.042;13.806;2023-05-10T08:27:59;17.73;64.13
65378;SHT31;51982;51.042;13.806;2023-05-10T08:30:25;17.74;64.51
65378;SHT31;51982;51.042;13.806;2023-05-10T08:32:50;17.77;64.06
65378;SHT31;51982;51.042;13.806;2023-05-10T08:35:15;17.79;63.90
65378;SHT31;51982;51.042;13.806;2023-05-10T08:37:41;17.81;64.01
65378;SHT31;51982;51.042;13.806;2023-05-10T08:40:06;17.86;64.17
65378;SHT31;51982;51.042;13.806;2023-05-10T08:42:36;17.87;63.84
65378;SHT31;51982;51.042;13.806;2023-05-10T08:45:03;17.90;63.87
65378;SHT31;51982;51.042;13.806;2023-05-10T08:47:29;17.90;63.90
65378;SHT31;51982;51.042;13.806;2023-05-10T08:49:55;17.97;64.22
65378;SHT31;51982;51.042;13.806;2023-05-10T08:52:21;18.01;63.93
65378;SHT31;51982;51.042;13.806;2023-05-10T08:54:49;18.05;63.74
65378;SHT31;51982;51.042;13.806;2023-05-10T08:57:14;18.07;63.66
65378;SHT31;51982;51.042;13.806;2023-05-10T08:59:39;18.10;63.89
65378;SHT31;51982;51.042;13.806;2023-05-10T09:02:06;18.11;63.93
65378;SHT31;51982;51.042;13.806;2023-05-10T09:04:31;18.14;63.79
65378;SHT31;51982;51.042;13.806;2023-05-10T09:06:57;18.18;63.90
65378;SHT31;51982;51.042;13.806;2023-05-10T09:09:23;18.23;63.83
65378;SHT31;51982;51.042;13.806;2023-05-10T09:11:50;18.25;63.90
65378;SHT31;51982;51.042;13.806;2023-05-10T09:14:15;18.28;63.88
65378;SHT31;51982;51.042;13.806;2023-05-10T09:16:42;18.32;63.97
65378;SHT31;51982;51.042;13.806;2023-05-10T09:19:08;18.37;64.17
65378;SHT31;51982;51.042;13.806;2023-05-10T09:21:37;18.38;63.70
65378;SHT31;51982;51.042;13.806;2023-05-10T09:24:06;18.42;63.76
65378;SHT31;51982;51.042;13.806;2023-05-10T09:26:31;18.48;63.81
65378;SHT31;51982;51.042;13.806;2023-05-10T09:28:59;18.52;63.67
65378;SHT31;51982;51.042;13.806;2023-05-10T09:31:43;18.59;63.74
65378;SHT31;51982;51.042;13.806;2023-05-10T09:34:08;18.62;64.82
65378;SHT31;51982;51.042;13.806;2023-05-10T09:36:34;18.66;63.73
65378;SHT31;51982;51.042;13.806;2023-05-10T09:38:59;18.71;63.98
65378;SHT31;51982;51.042;13.806;2023-05-10T09:41:25;18.75;63.85
65378;SHT31;51982;51.042;13.806;2023-05-10T09:43:55;18.76;63.49
65378;SHT31;51982;51.042;13.806;2023-05-10T09:46:21;18.79;63.32
65378;SHT31;51982;51.042;13.806;2023-05-10T09:48:47;18.82;63.25
65378;SHT31;51982;51.042;13.806;2023-05-10T09:51:23;18.85;63.49
65378;SHT31;51982;51.042;13.806;2023-05-10T09:54:08;18.89;63.42
65378;SHT31;51982;51.042;13.806;2023-05-10T09:56:35;18.93;63.33
65378;SHT31;51982;51.042;13.806;2023-05-10T09:59:05;18.93;63.31
65378;SHT31;51982;51.042;13.806;2023-05-10T10:01:30;18.99;63.49
65378;SHT31;51982;51.042;13.806;2023-05-10T10:03:56;19.03;63.22
65378;SHT31;51982;51.042;13.806;2023-05-10T10:06:23;19.06;63.00
65378;SHT31;51982;51.042;13.806;2023-05-10T10:08:48;19.07;63.10
65378;SHT31;51982;51.042;13.806;2023-05-10T10:11:13;19.09;63.09
65378;SHT31;51982;51.042;13.806;2023-05-10T10:13:39;19.15;62.39
65378;SHT31;51982;51.042;13.806;2023-05-10T10:16:05;19.16;62.71
65378;SHT31;51982;51.042;13.806;2023-05-10T10:18:30;19.23;62.41
65378;SHT31;51982;51.042;13.806;2023-05-10T10:20:56;19.27;62.62
65378;SHT31;51982;51.042;13.806;2023-05-10T10:23:21;19.28;62.27
65378;SHT31;51982;51.042;13.806;2023-05-10T10:25:47;19.34;62.33
65378;SHT31;51982;51.042;13.806;2023-05-10T10:28:43;19.33;62.05
65378;SHT31;51982;51.042;13.806;2023-05-10T10:31:39;19.33;61.44
65378;SHT31;51982;51.042;13.806;2023-05-10T10:34:06;19.34;62.18
65378;SHT31;51982;51.042;13.806;2023-05-10T10:36:40;19.38;62.43
65378;SHT31;51982;51.042;13.806;2023-05-10T10:39:09;19.43;62.71
65378;SHT31;51982;51.042;13.806;2023-05-10T10:41:37;19.49;62.60
65378;SHT31;51982;51.042;13.806;2023-05-10T10:52:20;19.53;62.75
65378;SHT31;51982;51.042;13.806;2023-05-10T10:54:52;19.54;62.26
65378;SHT31;51982;51.042;13.806;2023-05-10T10:57:19;19.56;62.09
65378;SHT31;51982;51.042;13.806;2023-05-10T10:59:46;19.58;62.32
65378;SHT31;51982;51.042;13.806;2023-05-10T11:02:34;19.63;61.48
65378;SHT31;51982;51.042;13.806;2023-05-10T11:05:34;19.70;62.63
65378;SHT31;51982;51.042;13.806;2023-05-10T11:08:06;19.73;62.08
65378;SHT31;51982;51.042;13.806;2023-05-10T11:10:32;19.75;62.54
65378;SHT31;51982;51.042;13.806;2023-05-10T11:13:08;19.85;62.56
65378;SHT31;51982;51.042;13.806;2023-05-10T11:15:39;19.82;62.21
65378;SHT31;51982;51.042;13.806;2023-05-10T11:18:25;19.92;61.59
65378;SHT31;51982;51.042;13.806;2023-05-10T11:20:52;19.95;61.63
65378;SHT31;51982;51.042;13.806;2023-05-10T11:23:18;20.01;61.37
65378;SHT31;51982;51.042;13.806;2023-05-10T11:25:45;20.05;61.71
65378;SHT31;51982;51.042;13.806;2023-05-10T11:28:11;20.12;61.58
65378;SHT31;51982;51.042;13.806;2023-05-10T11:30:41;20.12;61.30
65378;SHT31;51982;51.042;13.806;2023-05-10T11:33:07;20.19;61.36
65378;SHT31;51982;51.042;13.806;2023-05-10T11:35:40;20.22;61.36
65378;SHT31;51982;51.042;13.806;2023-05-10T11:38:07;20.26;61.02
65378;SHT31;51982;51.042;13.806;2023-05-10T11:40:32;20.30;61.79
65378;SHT31;51982;51.042;13.806;2023-05-10T11:42:57;20.32;61.77
65378;SHT31;51982;51.042;13.806;2023-05-10T11:45:26;20.38;61.30
65378;SHT31;51982;51.042;13.806;2023-05-10T11:47:52;20.38;61.10
65378;SHT31;51982;51.042;13.806;2023-05-10T11:50:18;20.42;61.13
65378;SHT31;51982;51.042;13.806;2023-05-10T11:52:43;20.45;61.43
65378;SHT31;51982;51.042;13.806;2023-05-10T11:55:08;20.45;61.68
65378;SHT31;51982;51.042;13.806;2023-05-10T11:57:35;20.50;61.64
65378;SHT31;51982;51.042;13.806;2023-05-10T12:00:03;20.50;60.77
65378;SHT31;51982;51.042;13.806;2023-05-10T12:02:29;20.56;60.92
65378;SHT31;51982;51.042;13.806;2023-05-10T12:04:55;20.59;60.96
65378;SHT31;51982;51.042;13.806;2023-05-10T12:07:20;20.63;60.92
65378;SHT31;51982;51.042;13.806;2023-05-10T12:10:08;20.69;60.20
65378;SHT31;51982;51.042;13.806;2023-05-10T12:12:45;20.72;60.77
65378;SHT31;51982;51.042;13.806;2023-05-10T12:15:22;20.75;61.09
65378;SHT31;51982;51.042;13.806;2023-05-10T12:17:48;20.83;61.08
65378;SHT31;51982;51.042;13.806;2023-05-10T12:20:21;20.87;60.47
65378;SHT31;51982;51.042;13.806;2023-05-10T12:22:52;20.87;60.79
65378;SHT31;51982;51.042;13.806;2023-05-10T12:25:19;20.92;60.90
65378;SHT31;51982;51.042;13.806;2023-05-10T12:27:53;20.90;60.75
65378;SHT31;51982;51.042;13.806;2023-05-10T12:32:46;20.96;60.72
65378;SHT31;51982;51.042;13.806;2023-05-10T12:35:12;20.96;60.73
65378;SHT31;51982;51.042;13.806;2023-05-10T12:37:37;21.01;60.81
65378;SHT31;51982;51.042;13.806;2023-05-10T12:40:08;21.06;60.85
65378;SHT31;51982;51.042;13.806;2023-05-10T12:42:34;21.10;60.84
65378;SHT31;51982;51.042;13.806;2023-05-10T12:45:01;21.10;60.88
65378;SHT31;51982;51.042;13.806;2023-05-10T12:47:26;21.15;60.92
65378;SHT31;51982;51.042;13.806;2023-05-10T12:49:51;21.14;60.76
65378;SHT31;51982;51.042;13.806;2023-05-10T12:52:16;21.17;60.71
65378;SHT31;51982;51.042;13.806;2023-05-10T12:54:42;21.19;60.52
65378;SHT31;51982;51.042;13.806;2023-05-10T12:57:07;21.19;60.11
65378;SHT31;51982;51.042;13.806;2023-05-10T12:59:32;21.19;60.43
65378;SHT31;51982;51.042;13.806;2023-05-10T13:01:57;21.23;60.22
65378;SHT31;51982;51.042;13.806;2023-05-10T13:04:23;21.23;60.32
65378;SHT31;51982;51.042;13.806;2023-05-10T13:06:48;21.26;60.35
65378;SHT31;51982;51.042;13.806;2023-05-10T13:09:13;21.30;59.92
65378;SHT31;51982;51.042;13.806;2023-05-10T13:11:39;21.34;59.84
65378;SHT31;51982;51.042;13.806;2023-05-10T13:14:04;21.35;59.98
65378;SHT31;51982;51.042;13.806;2023-05-10T13:16:30;21.33;60.02
65378;SHT31;51982;51.042;13.806;2023-05-10T13:18:55;21.40;60.17
65378;SHT31;51982;51.042;13.806;2023-05-10T13:21:20;21.43;60.30
65378;SHT31;51982;51.042;13.806;2023-05-10T13:23:46;21.44;60.61
65378;SHT31;51982;51.042;13.806;2023-05-10T13:26:11;21.48;60.35
65378;SHT31;51982;51.042;13.806;2023-05-10T13:28:37;21.52;60.43
65378;SHT31;51982;51.042;13.806;2023-05-10T13:31:03;21.54;60.64
65378;SHT31;51982;51.042;13.806;2023-05-10T13:33:29;21.57;60.43
65378;SHT31;51982;51.042;13.806;2023-05-10T13:35:55;21.61;60.13
65378;SHT31;51982;51.042;13.806;2023-05-10T13:38:20;21.59;60.18
65378;SHT31;51982;51.042;13.806;2023-05-10T13:40:45;21.59;60.16
65378;SHT31;51982;51.042;13.806;2023-05-10T13:43:10;21.61;60.01
65378;SHT31;51982;51.042;13.806;2023-05-10T13:45:36;21.65;59.97
65378;SHT31;51982;51.042;13.806;2023-05-10T13:48:01;21.68;60.08
65378;SHT31;51982;51.042;13.806;2023-05-10T13:50:26;21.66;60.01
65378;SHT31;51982;51.042;13.806;2023-05-10T13:52:52;21.66;59.43
65378;SHT31;51982;51.042;13.806;2023-05-10T13:55:17;21.68;59.44
65378;SHT31;51982;51.042;13.806;2023-05-10T13:57:42;21.71;59.65
65378;SHT31;51982;51.042;13.806;2023-05-10T14:00:08;21.72;59.56
65378;SHT31;51982;51.042;13.806;2023-05-10T14:02:34;21.75;59.64
65378;SHT31;51982;51.042;13.806;2023-05-10T14:04:59;21.77;59.79
65378;SHT31;51982;51.042;13.806;2023-05-10T14:07:25;21.78;59.75
65378;SHT31;51982;51.042;13.806;2023-05-10T14:09:50;21.79;59.70
65378;SHT31;51982;51.042;13.806;2023-05-10T14:12:16;21.82;59.57
65378;SHT31;51982;51.042;13.806;2023-05-10T14:14:41;21.85;59.52
65378;SHT31;51982;51.042;13.806;2023-05-10T14:17:07;21.86;59.77
65378;SHT31;51982;51.042;13.806;2023-05-10T14:19:32;21.91;59.70
65378;SHT31;51982;51.042;13.806;2023-05-10T14:21:59;21.91;59.19
65378;SHT31;51982;51.042;13.806;2023-05-10T14:24:24;21.91;59.30
65378;SHT31;51982;51.042;13.806;2023-05-10T14:26:49;21.89;59.08
65378;SHT31;51982;51.042;13.806;2023-05-10T14:29:18;21.88;59.30
65378;SHT31;51982;51.042;13.806;2023-05-10T14:31:43;21.88;58.89
65378;SHT31;51982;51.042;13.806;2023-05-10T14:34:09;21.91;58.85
65378;SHT31;51982;51.042;13.806;2023-05-10T14:36:34;21.95;58.87
65378;SHT31;51982;51.042;13.806;2023-05-10T14:38:59;21.95;58.56
65378;SHT31;51982;51.042;13.806;2023-05-10T14:41:24;21.95;58.95
65378;SHT31;51982;51.042;13.806;2023-05-10T14:43:49;21.98;59.04
65378;SHT31;51982;51.042;13.806;2023-05-10T14:46:15;21.95;58.86
65378;SHT31;51982;51.042;13.806;2023-05-10T14:48:40;21.99;58.69
65378;SHT31;51982;51.042;13.806;2023-05-10T14:51:06;22.01;58.97
65378;SHT31;51982;51.042;13.806;2023-05-10T14:53:31;22.03;58.77
65378;SHT31;51982;51.042;13.806;2023-05-10T14:55:57;22.01;58.64
65378;SHT31;51982;51.042;13.806;2023-05-10T14:58:23;22.05;58.63
65378;SHT31;51982;51.042;13.806;2023-05-10T15:00:48;22.03;58.25
65378;SHT31;51982;51.042;13.806;2023-05-10T15:03:13;22.03;58.24
65378;SHT31;51982;51.042;13.806;2023-05-10T15:05:39;22.03;58.23
65378;SHT31;51982;51.042;13.806;2023-05-10T15:08:04;22.02;58.26
65378;SHT31;51982;51.042;13.806;2023-05-10T15:10:36;22.01;58.67
65378;SHT31;51982;51.042;13.806;2023-05-10T15:13:03;21.94;58.48
65378;SHT31;51982;51.042;13.806;2023-05-10T15:15:28;21.95;58.82
65378;SHT31;51982;51.042;13.806;2023-05-10T15:17:54;21.94;58.85
65378;SHT31;51982;51.042;13.806;2023-05-10T15:20:19;21.91;58.79
65378;SHT31;51982;51.042;13.806;2023-05-10T15:22:44;21.86;59.08
65378;SHT31;51982;51.042;13.806;2023-05-10T15:25:09;21.86;60.16
65378;SHT31;51982;51.042;13.806;2023-05-10T15:27:35;21.84;61.60
65378;SHT31;51982;51.042;13.806;2023-05-10T15:30:00;21.81;62.75